Time;durP1;ratioP1;P1;durP2;ratioP2;P2;SDS_P1;SDS_P2;PMS_P1;PMS_P2;Temp;Humidity;BMP_temperature;BMP_pressure;BME280_temperature;BME280_humidity;BME280_pressure;Samples;Min_cycle;Max_cycle;Signal;HPM_P1;HPM_P2
2024/04/15 00:00:43;;;;;;;66.73;63.83;;;25.20;1.00;;;;;;2612807;54;20188;-68
2024/04/15 00:03:09;;;;;;;66.63;63.73;;;25.20;1.00;;;;;;2612855;54;20423;-67
2024/04/15 00:05:37;;;;;;;66.20;63.30;;;25.20;1.00;;;;;;2613230;54;20407;-72
2024/04/15 00:08:03;;;;;;;66.87;63.97;;;25.20;1.00;;;;;;2614784;54;20170;-68
2024/04/15 00:10:28;;;;;;;66.43;63.53;;;25.20;1.00;;;;;;2613569;54;20419;-69
2024/04/15 00:12:54;;;;;;;66.73;63.83;;;25.20;1.00;;;;;;2614148;39;20795;-70
2024/04/15 00:15:20;;;;;;;66.87;63.97;;;25.10;1.00;;;;;;2614297;54;20238;-70
2024/04/15 00:17:46;;;;;;;67.23;64.30;;;25.20;1.00;;;;;;2614509;46;20192;-75
2024/04/15 00:20:11;;;;;;;67.20;64.30;;;25.20;1.00;;;;;;2613388;54;20162;-74
2024/04/15 00:22:37;;;;;;;66.47;63.57;;;25.10;1.00;;;;;;2613654;47;20185;-76
2024/04/15 00:25:03;;;;;;;66.30;63.40;;;25.10;1.00;;;;;;2613556;54;20194;-74
2024/04/15 00:27:29;;;;;;;66.30;63.40;;;25.10;1.00;;;;;;2612981;47;20175;-73
2024/04/15 00:29:54;;;;;;;65.57;62.70;;;25.10;1.00;;;;;;2613856;47;20415;-72
2024/04/15 00:32:20;;;;;;;66.47;63.57;;;25.10;1.00;;;;;;2613091;54;20186;-74
2024/04/15 00:34:46;;;;;;;66.07;63.17;;;25.10;1.00;;;;;;2613081;54;20315;-73
2024/04/15 00:37:12;;;;;;;66.87;63.97;;;25.10;1.00;;;;;;2612550;54;20151;-72
2024/04/15 00:39:38;;;;;;;65.10;62.23;;;25.10;1.00;;;;;;2613857;39;21114;-73
2024/04/15 00:42:04;;;;;;;65.87;62.97;;;25.00;1.00;;;;;;2612304;47;20333;-72
2024/04/15 00:44:33;;;;;;;66.20;63.30;;;25.00;1.00;;;;;;2612607;54;20166;-73
2024/04/15 00:47:01;;;;;;;65.40;62.53;;;25.00;1.00;;;;;;2612367;51;20431;-73
2024/04/15 00:49:28;;;;;;;65.73;62.83;;;25.00;1.00;;;;;;2612887;47;20456;-73
2024/04/15 00:51:54;;;;;;;65.80;62.90;;;25.00;1.00;;;;;;2613061;54;20475;-72
2024/04/15 00:54:19;;;;;;;65.17;62.37;;;25.00;1.00;;;;;;2613354;39;20878;-72
2024/04/15 00:56:45;;;;;;;65.70;62.80;;;25.00;1.00;;;;;;2613103;47;20190;-70
2024/04/15 00:59:11;;;;;;;66.07;63.17;;;25.00;1.00;;;;;;2612691;47;20416;-73
2024/04/15 01:01:38;;;;;;;66.50;63.60;;;24.90;1.00;;;;;;2612638;54;20163;-72
2024/04/15 01:04:04;;;;;;;65.23;62.43;;;24.90;1.00;;;;;;2612700;54;20168;-73
2024/04/15 01:06:30;;;;;;;65.63;62.83;;;24.90;1.00;;;;;;2612938;54;20396;-72
2024/04/15 01:08:56;;;;;;;65.40;62.60;;;24.90;1.00;;;;;;2612994;54;20187;-71
2024/04/15 01:11:21;;;;;;;66.60;63.70;;;24.90;1.00;;;;;;2613042;39;21157;-73
2024/04/15 01:13:47;;;;;;;66.53;63.63;;;24.90;1.00;;;;;;2612853;54;20151;-73
2024/04/15 01:16:13;;;;;;;66.50;63.60;;;24.90;1.00;;;;;;2612486;54;20139;-70
2024/04/15 01:18:39;;;;;;;66.17;63.27;;;24.90;1.00;;;;;;2613364;47;20222;-70
2024/04/15 01:21:05;;;;;;;66.10;63.20;;;24.90;1.00;;;;;;2612619;47;20676;-71
2024/04/15 01:23:34;;;;;;;66.10;63.20;;;24.90;1.00;;;;;;2612790;54;20169;-71
2024/04/15 01:26:00;;;;;;;65.73;62.83;;;24.80;1.00;;;;;;2612429;54;20403;-74
2024/04/15 01:28:26;;;;;;;66.27;63.37;;;24.80;1.00;;;;;;2612744;54;20410;-74
2024/04/15 01:30:52;;;;;;;66.30;63.40;;;24.80;1.00;;;;;;2613124;54;20395;-75
2024/04/15 01:33:18;;;;;;;65.17;62.37;;;24.80;1.00;;;;;;2612421;54;20210;-75
2024/04/15 01:35:43;;;;;;;66.90;64.00;;;24.80;1.00;;;;;;2613337;39;20574;-81
2024/04/15 01:38:09;;;;;;;65.57;62.77;;;24.80;1.00;;;;;;2613496;54;20175;-81
2024/04/15 01:40:35;;;;;;;65.77;62.97;;;24.80;1.00;;;;;;2613568;54;20166;-81
2024/04/15 01:43:01;;;;;;;65.80;62.90;;;24.80;1.00;;;;;;2613132;54;20215;-82
2024/04/15 01:45:26;;;;;;;66.10;63.20;;;24.80;1.00;;;;;;2613004;54;20166;-81
2024/04/15 01:47:52;;;;;;;66.40;63.50;;;24.80;1.00;;;;;;2613283;54;20161;-80
2024/04/15 01:50:20;;;;;;;66.00;63.10;;;24.90;1.00;;;;;;2613165;47;20162;-81
2024/04/15 01:52:46;;;;;;;66.50;63.60;;;24.90;1.00;;;;;;2613327;51;20182;-80
2024/04/15 01:55:11;;;;;;;66.27;63.37;;;25.00;1.00;;;;;;2614103;39;20887;-81
2024/04/15 01:57:37;;;;;;;66.50;63.60;;;25.10;1.00;;;;;;2613958;54;20454;-81
2024/04/15 02:00:04;;;;;;;66.30;63.40;;;25.20;1.00;;;;;;2613311;54;20157;-82
2024/04/15 02:02:31;;;;;;;66.00;63.10;;;25.40;1.00;;;;;;2612692;54;20151;-82
2024/04/15 02:04:57;;;;;;;66.17;63.27;;;25.40;1.00;;;;;;2613287;46;20447;-80
2024/04/15 02:07:22;;;;;;;66.47;63.57;;;25.50;1.00;;;;;;2612992;54;20419;-81
2024/04/15 02:09:48;;;;;;;65.40;62.60;;;25.50;1.00;;;;;;2613787;54;20170;-82
2024/04/15 02:12:14;;;;;;;65.80;63.00;;;25.50;1.00;;;;;;2613749;54;20166;-81
2024/04/15 02:14:40;;;;;;;66.30;63.40;;;25.60;1.00;;;;;;2613145;54;20901;-81
2024/04/15 02:17:05;;;;;;;65.57;62.77;;;25.60;1.00;;;;;;2613429;54;20147;-81
2024/04/15 02:19:31;;;;;;;66.70;63.80;;;25.60;1.00;;;;;;2613446;54;20174;-81
2024/04/15 02:21:57;;;;;;;66.50;63.60;;;25.60;1.00;;;;;;2614143;54;20223;-81
2024/04/15 02:24:23;;;;;;;66.20;63.30;;;25.60;1.00;;;;;;2613463;54;20202;-81
2024/04/15 02:26:49;;;;;;;66.40;63.50;;;25.60;1.00;;;;;;2613099;54;20423;-70
2024/04/15 02:29:15;;;;;;;66.13;63.23;;;25.50;1.00;;;;;;2612972;54;20238;-70
2024/04/15 02:31:41;;;;;;;66.33;63.43;;;25.40;1.00;;;;;;2613327;54;20403;-70
2024/04/15 02:34:07;;;;;;;66.30;63.40;;;25.30;1.00;;;;;;2613828;54;20173;-70
2024/04/15 02:36:32;;;;;;;66.40;63.50;;;25.30;1.00;;;;;;2613389;54;20169;-75
2024/04/15 02:38:58;;;;;;;65.80;62.90;;;25.20;1.00;;;;;;2613369;54;20224;-74
2024/04/15 02:41:24;;;;;;;66.30;63.40;;;25.10;1.00;;;;;;2613395;54;20158;-74
2024/04/15 02:43:50;;;;;;;66.20;63.30;;;25.10;1.00;;;;;;2613345;54;20185;-75
2024/04/15 02:46:16;;;;;;;66.63;63.73;;;25.00;1.00;;;;;;2612674;54;20189;-73
2024/04/15 02:48:43;;;;;;;67.00;64.00;;;25.00;1.00;;;;;;2613005;54;20175;-75
2024/04/15 02:51:10;;;;;;;66.70;63.70;;;24.90;1.00;;;;;;2613081;54;20432;-73
2024/04/15 02:53:35;;;;;;;64.83;62.03;;;24.90;1.00;;;;;;2613453;39;21310;-73
2024/04/15 02:56:01;;;;;;;66.60;63.70;;;24.90;1.00;;;;;;2613664;54;20419;-74
2024/04/15 02:58:27;;;;;;;67.70;64.70;;;24.90;1.00;;;;;;2613297;39;20549;-73
2024/04/15 03:00:53;;;;;;;66.47;63.57;;;24.90;1.00;;;;;;2613878;39;20657;-74
2024/04/15 03:03:18;;;;;;;66.10;63.20;;;24.80;1.00;;;;;;2613162;47;20192;-73
2024/04/15 03:05:45;;;;;;;67.30;64.30;;;24.80;1.00;;;;;;2613182;54;20155;-73
2024/04/15 03:08:11;;;;;;;66.97;63.97;;;24.80;1.00;;;;;;2612979;47;20183;-75
2024/04/15 03:10:37;;;;;;;66.93;63.93;;;24.80;1.00;;;;;;2615817;54;20443;-75
2024/04/15 03:13:03;;;;;;;67.07;64.07;;;24.70;1.00;;;;;;2619237;54;20416;-75
2024/04/15 03:15:31;;;;;;;67.00;64.00;;;24.70;1.00;;;;;;2612921;39;20567;-74
2024/04/15 03:17:57;;;;;;;67.30;64.30;;;24.70;1.00;;;;;;2612736;39;20597;-74
2024/04/15 03:20:26;;;;;;;68.60;65.50;;;24.70;1.00;;;;;;2612515;54;20472;-73
2024/04/15 03:22:52;;;;;;;68.13;65.13;;;24.70;1.00;;;;;;2612265;54;20423;-75
2024/04/15 03:25:22;;;;;;;67.83;64.83;;;24.70;1.00;;;;;;2612728;54;20434;-75
2024/04/15 03:27:48;;;;;;;67.80;64.80;;;24.60;1.00;;;;;;2612281;47;20182;-75
2024/04/15 03:30:15;;;;;;;67.77;64.77;;;24.60;1.00;;;;;;2612539;54;20396;-73
2024/04/15 03:32:41;;;;;;;66.80;63.90;;;24.60;1.00;;;;;;2612524;47;20431;-75
2024/04/15 03:35:14;;;;;;;66.23;63.33;;;24.60;1.00;;;;;;2612465;54;20415;-74
2024/04/15 03:37:41;;;;;;;67.77;64.77;;;24.60;1.00;;;;;;2612903;49;20466;-74
2024/04/15 03:40:07;;;;;;;66.77;63.87;;;24.60;1.00;;;;;;2612249;54;20394;-74
2024/04/15 03:42:33;;;;;;;68.07;65.07;;;24.60;1.00;;;;;;2612243;54;20439;-73
2024/04/15 03:44:59;;;;;;;67.53;64.53;;;24.60;1.00;;;;;;2611794;54;20406;-73
2024/04/15 03:47:24;;;;;;;67.13;64.13;;;24.50;1.00;;;;;;2612491;54;20165;-75
2024/04/15 03:49:50;;;;;;;66.77;63.77;;;24.50;1.00;;;;;;2612068;54;20151;-75
2024/04/15 03:52:16;;;;;;;67.40;64.40;;;24.50;1.00;;;;;;2612864;54;20151;-75
2024/04/15 03:54:42;;;;;;;67.20;64.20;;;24.50;1.00;;;;;;2611822;54;20285;-75
2024/04/15 03:57:07;;;;;;;67.67;64.57;;;24.50;1.00;;;;;;2613220;54;20170;-81
2024/04/15 03:59:35;;;;;;;67.70;64.60;;;24.50;1.00;;;;;;2613022;54;20147;-83
2024/04/15 04:02:02;;;;;;;68.10;65.00;;;24.50;1.00;;;;;;2613370;39;20610;-81
2024/04/15 04:04:31;;;;;;;66.20;63.30;;;24.50;1.00;;;;;;2614075;54;20402;-77
2024/04/15 04:06:57;;;;;;;66.50;63.60;;;24.50;1.00;;;;;;2613165;47;20415;-80
2024/04/15 04:09:23;;;;;;;65.53;62.63;;;24.40;1.00;;;;;;2613886;54;20431;-81
2024/04/15 04:11:49;;;;;;;67.43;64.43;;;24.50;1.00;;;;;;2613834;54;20399;-79
2024/04/15 04:14:15;;;;;;;67.47;64.47;;;24.50;1.00;;;;;;2613798;54;20147;-75
2024/04/15 04:16:43;;;;;;;66.43;63.53;;;24.50;1.00;;;;;;2613216;54;20453;-79
2024/04/15 04:19:09;;;;;;;66.83;63.83;;;24.50;1.00;;;;;;2613295;54;20446;-82
2024/04/15 04:21:34;;;;;;;66.30;63.40;;;24.50;1.00;;;;;;2613785;54;20934;-79
2024/04/15 04:24:00;;;;;;;66.17;63.27;;;24.50;1.00;;;;;;2613269;54;20193;-81
2024/04/15 04:26:26;;;;;;;65.90;63.00;;;24.50;1.00;;;;;;2613617;47;20164;-80
2024/04/15 04:28:53;;;;;;;66.30;63.40;;;24.50;1.00;;;;;;2614342;54;20442;-82
2024/04/15 04:31:19;;;;;;;66.47;63.57;;;24.50;1.00;;;;;;2614294;54;20155;-80
2024/04/15 04:33:45;;;;;;;65.07;62.27;;;24.50;1.00;;;;;;2613401;54;20499;-80
2024/04/15 04:36:15;;;;;;;66.37;63.47;;;24.50;1.00;;;;;;2613750;54;20195;-82
2024/04/15 04:38:41;;;;;;;66.10;63.20;;;24.50;1.00;;;;;;2613664;47;20169;-80
2024/04/15 04:41:07;;;;;;;66.50;63.60;;;24.50;1.00;;;;;;2613533;49;20411;-81
2024/04/15 04:43:33;;;;;;;67.23;64.33;;;24.40;1.00;;;;;;2613496;54;20154;-82
2024/04/15 04:46:10;;;;;;;68.20;65.20;;;24.40;1.00;;;;;;2613326;54;20392;-67
2024/04/15 04:48:36;;;;;;;66.87;63.97;;;24.40;1.00;;;;;;2612967;54;20189;-67
2024/04/15 04:51:11;;;;;;;68.00;65.00;;;24.40;1.00;;;;;;2612310;54;21578;-68
2024/04/15 04:53:40;;;;;;;68.00;65.00;;;24.30;1.00;;;;;;2612653;54;20185;-67
2024/04/15 04:56:11;;;;;;;67.17;64.27;;;24.30;1.00;;;;;;2612489;54;20408;-78
2024/04/15 04:58:44;;;;;;;68.07;65.07;;;24.30;1.00;;;;;;2613610;47;20404;-79
2024/04/15 05:01:15;;;;;;;68.10;65.10;;;24.30;1.00;;;;;;2613568;54;20452;-77
2024/04/15 05:03:45;;;;;;;67.70;64.80;;;24.30;1.00;;;;;;2613717;54;20407;-77
2024/04/15 05:06:12;;;;;;;67.00;64.10;;;24.30;1.00;;;;;;2613362;54;20438;-76
2024/04/15 05:08:38;;;;;;;67.23;64.33;;;24.30;1.00;;;;;;2614041;54;20407;-77
2024/04/15 05:11:05;;;;;;;66.73;63.83;;;24.30;1.00;;;;;;2613339;54;20538;-77
2024/04/15 05:13:30;;;;;;;66.97;64.07;;;24.30;1.00;;;;;;2613760;54;20383;-76
2024/04/15 05:16:07;;;;;;;66.70;63.80;;;24.30;1.00;;;;;;2612831;54;20520;-76
2024/04/15 05:18:34;;;;;;;67.53;64.60;;;24.30;1.00;;;;;;2612722;54;20177;-77
2024/04/15 05:21:00;;;;;;;64.10;61.50;;;24.30;1.00;;;;;;2613032;54;20427;-80
2024/04/15 05:23:27;;;;;;;63.67;61.07;;;24.30;1.00;;;;;;2614552;54;20423;-80
2024/04/15 05:25:54;;;;;;;63.63;61.03;;;24.30;1.00;;;;;;2614409;54;20403;-79
2024/04/15 05:28:20;;;;;;;63.27;60.67;;;24.30;1.00;;;;;;2614385;54;20791;-78
2024/04/15 05:30:45;;;;;;;64.20;61.60;;;24.40;1.00;;;;;;2614103;54;20418;-82
2024/04/15 05:33:11;;;;;;;64.37;61.77;;;24.40;1.00;;;;;;2614792;54;20175;-80
2024/04/15 05:35:37;;;;;;;64.90;62.30;;;24.40;1.00;;;;;;2614766;54;20204;-84
2024/04/15 05:38:02;;;;;;;64.83;62.23;;;24.50;1.00;;;;;;2615617;54;20151;-85
2024/04/15 05:40:28;;;;;;;64.10;61.50;;;24.50;1.00;;;;;;2614411;54;20163;-85
2024/04/15 05:42:54;;;;;;;64.80;62.10;;;24.50;1.00;;;;;;2614595;54;20660;-82
2024/04/15 05:45:19;;;;;;;65.20;62.50;;;24.50;1.00;;;;;;2614746;39;20658;-79
2024/04/15 05:47:45;;;;;;;65.03;62.33;;;24.50;1.00;;;;;;2613102;54;20143;-77
2024/04/15 05:50:11;;;;;;;65.60;62.90;;;24.40;1.00;;;;;;2613872;54;20266;-76
2024/04/15 05:52:36;;;;;;;65.50;62.80;;;24.40;1.00;;;;;;2613694;54;20782;-79
2024/04/15 05:55:02;;;;;;;65.77;62.97;;;24.50;1.00;;;;;;2614159;54;20163;-79
2024/04/15 05:57:28;;;;;;;66.30;63.50;;;24.30;1.00;;;;;;2611868;54;20238;-67
2024/04/15 05:59:54;;;;;;;66.03;63.23;;;24.20;1.00;;;;;;2612304;47;20170;-69
2024/04/15 06:02:19;;;;;;;66.13;63.33;;;24.10;1.00;;;;;;2613020;47;20278;-69
2024/04/15 06:04:45;;;;;;;66.90;64.00;;;23.70;1.00;;;;;;2612517;54;21272;-69
2024/04/15 06:07:11;;;;;;;68.10;65.20;;;23.70;1.00;;;;;;2612752;54;20166;-75
2024/04/15 06:09:39;;;;;;;67.27;64.47;;;23.80;1.00;;;;;;2612018;54;20171;-73
2024/04/15 06:12:06;;;;;;;68.13;65.23;;;23.60;1.00;;;;;;2612008;54;20174;-73
2024/04/15 06:14:31;;;;;;;68.10;65.20;;;23.70;1.00;;;;;;2611978;47;20434;-73
2024/04/15 06:16:57;;;;;;;68.10;65.20;;;23.80;1.00;;;;;;2612427;47;20408;-81
2024/04/15 06:19:23;;;;;;;68.60;65.70;;;23.80;1.00;;;;;;2613778;54;20162;-81
2024/04/15 06:21:50;;;;;;;67.03;64.23;;;23.80;1.00;;;;;;2614272;54;20432;-81
2024/04/15 06:24:16;;;;;;;66.90;64.10;;;23.80;1.00;;;;;;2614290;54;20238;-81
2024/04/15 06:26:41;;;;;;;66.57;63.77;;;23.90;1.00;;;;;;2613951;54;20428;-81
2024/04/15 06:29:07;;;;;;;67.00;64.20;;;23.90;1.00;;;;;;2613964;54;20250;-81
2024/04/15 06:31:33;;;;;;;65.50;62.80;;;23.90;1.00;;;;;;2614123;54;20155;-82
2024/04/15 06:34:02;;;;;;;66.13;63.33;;;23.90;1.00;;;;;;2613553;54;20427;-81
2024/04/15 06:36:28;;;;;;;65.20;62.50;;;23.90;1.00;;;;;;2613107;47;20165;-81
2024/04/15 06:38:54;;;;;;;66.27;63.47;;;23.90;1.00;;;;;;2613867;39;20443;-81
2024/04/15 06:41:20;;;;;;;67.23;64.33;;;23.90;1.00;;;;;;2613562;54;20404;-81
2024/04/15 06:43:45;;;;;;;65.80;63.00;;;23.90;1.00;;;;;;2614574;39;20578;-82
2024/04/15 06:46:11;;;;;;;66.57;63.77;;;23.90;1.00;;;;;;2613771;54;20691;-81
2024/04/15 06:48:39;;;;;;;65.00;62.30;;;23.90;1.00;;;;;;2613629;54;20448;-81
2024/04/15 06:51:04;;;;;;;65.90;63.10;;;23.90;1.00;;;;;;2613821;54;20266;-81
2024/04/15 06:53:30;;;;;;;66.60;63.80;;;23.90;1.00;;;;;;2613413;47;20446;-81
2024/04/15 06:55:56;;;;;;;66.47;63.67;;;23.90;1.00;;;;;;2613592;54;20167;-81
2024/04/15 06:58:21;;;;;;;65.43;62.63;;;23.90;1.00;;;;;;2611426;47;20186;-78
2024/04/15 07:00:47;;;;;;;67.13;64.33;;;23.90;1.00;;;;;;2610605;54;20166;-79
2024/04/15 07:03:13;;;;;;;67.07;64.27;;;24.10;1.00;;;;;;2611753;50;20680;-81
2024/04/15 07:05:38;;;;;;;65.80;63.00;;;24.10;1.00;;;;;;2613051;54;20143;-67
2024/04/15 07:08:06;;;;;;;65.50;62.80;;;24.10;1.00;;;;;;2612818;54;20676;-74
2024/04/15 07:10:32;;;;;;;67.80;65.00;;;24.20;1.00;;;;;;2613343;54;20143;-73
2024/04/15 07:12:59;;;;;;;67.80;64.90;;;24.20;1.00;;;;;;2612377;54;20434;-73
2024/04/15 07:15:25;;;;;;;67.90;65.00;;;24.20;1.00;;;;;;2611805;54;20448;-73
2024/04/15 07:17:50;;;;;;;67.67;64.77;;;24.20;1.00;;;;;;2613195;39;20475;-68
2024/04/15 07:20:16;;;;;;;68.07;65.17;;;24.20;1.00;;;;;;2612796;54;20691;-68
2024/04/15 07:22:42;;;;;;;67.23;64.43;;;24.20;1.00;;;;;;2612994;54;20146;-67
2024/04/15 07:25:08;;;;;;;66.77;63.97;;;24.20;1.00;;;;;;2612761;31;20661;-67
2024/04/15 07:27:34;;;;;;;68.33;65.43;;;24.30;1.00;;;;;;2612887;54;20399;-72
2024/04/15 07:30:00;;;;;;;66.77;63.97;;;24.30;1.00;;;;;;2613108;47;20233;-72
2024/04/15 07:32:26;;;;;;;68.53;65.63;;;24.30;1.00;;;;;;2612584;39;20944;-71
2024/04/15 07:34:52;;;;;;;65.13;62.43;;;24.30;1.00;;;;;;2613427;54;20434;-72
2024/04/15 07:37:17;;;;;;;66.93;64.13;;;24.30;1.00;;;;;;2613771;54;20143;-72
2024/04/15 07:39:46;;;;;;;66.00;63.30;;;24.30;1.00;;;;;;2614034;54;20139;-72
2024/04/15 07:42:12;;;;;;;68.00;65.10;;;24.30;1.00;;;;;;2614302;51;20159;-71
2024/04/15 07:44:38;;;;;;;66.00;63.20;;;24.40;1.00;;;;;;2613386;54;20458;-72
2024/04/15 07:47:05;;;;;;;70.20;67.20;;;24.30;1.00;;;;;;2613892;54;20147;-72
2024/04/15 07:49:30;;;;;;;66.83;64.03;;;24.30;1.00;;;;;;2613561;54;20409;-72
2024/04/15 07:51:56;;;;;;;67.23;64.43;;;24.30;1.00;;;;;;2613581;54;20423;-72
2024/04/15 07:54:22;;;;;;;67.57;64.77;;;24.40;1.00;;;;;;2613868;54;20177;-72
2024/04/15 07:56:48;;;;;;;67.20;64.40;;;24.40;1.00;;;;;;2613799;54;20143;-71
2024/04/15 07:59:13;;;;;;;67.60;64.73;;;24.30;1.00;;;;;;2613071;47;20430;-72
2024/04/15 08:01:39;;;;;;;68.20;65.40;;;24.40;1.00;;;;;;2612086;54;20167;-72
2024/04/15 08:04:05;;;;;;;67.57;64.77;;;24.40;1.00;;;;;;2613170;54;20250;-72
2024/04/15 08:06:31;;;;;;;68.17;65.27;;;24.40;1.00;;;;;;2613413;54;20153;-71
2024/04/15 08:08:56;;;;;;;66.10;63.40;;;24.40;1.00;;;;;;2613094;54;20147;-72
2024/04/15 08:11:22;;;;;;;66.47;63.67;;;24.40;1.00;;;;;;2611314;54;20166;-73
2024/04/15 08:13:47;;;;;;;68.70;65.80;;;24.40;1.00;;;;;;2614040;54;20648;-72
2024/04/15 08:16:13;;;;;;;67.20;64.30;;;24.40;1.00;;;;;;2613990;54;20139;-73
2024/04/15 08:18:39;;;;;;;67.70;64.80;;;24.50;1.00;;;;;;2613858;54;20162;-74
2024/04/15 08:21:05;;;;;;;67.43;64.53;;;24.50;1.00;;;;;;2613144;54;20197;-73
2024/04/15 08:23:30;;;;;;;67.73;64.83;;;24.50;1.00;;;;;;2612836;54;20173;-74
2024/04/15 08:25:57;;;;;;;68.13;65.23;;;24.50;1.00;;;;;;2613924;54;20154;-85
2024/04/15 08:28:23;;;;;;;68.50;65.60;;;24.50;1.00;;;;;;2614751;54;20164;-85
2024/04/15 08:30:49;;;;;;;67.67;64.87;;;24.50;1.00;;;;;;2614218;54;20439;-85
2024/04/15 08:33:15;;;;;;;69.60;66.70;;;24.60;1.00;;;;;;2614980;39;20838;-85
2024/04/15 08:35:41;;;;;;;68.17;65.27;;;24.60;1.00;;;;;;2615148;54;20464;-68
2024/04/15 08:38:07;;;;;;;67.33;64.53;;;24.60;1.00;;;;;;2614579;54;20440;-82
2024/04/15 08:40:33;;;;;;;68.30;65.40;;;24.60;1.00;;;;;;2614285;54;20154;-82
2024/04/15 08:43:02;;;;;;;68.20;65.30;;;24.60;1.00;;;;;;2613799;54;20423;-82
2024/04/15 08:45:30;;;;;;;67.50;64.60;;;24.60;1.00;;;;;;2614445;54;20416;-81
2024/04/15 08:47:57;;;;;;;67.00;64.10;;;24.60;1.00;;;;;;2614198;54;20444;-82
2024/04/15 08:50:25;;;;;;;67.57;64.67;;;24.60;1.00;;;;;;2614530;39;20775;-82
2024/04/15 08:52:54;;;;;;;68.73;65.83;;;24.60;1.00;;;;;;2613798;54;20458;-81
2024/04/15 08:55:22;;;;;;;67.83;64.93;;;24.60;1.00;;;;;;2613144;54;20442;-81
2024/04/15 08:57:48;;;;;;;68.57;65.67;;;24.60;1.00;;;;;;2613531;47;20407;-83
2024/04/15 09:00:19;;;;;;;67.90;65.10;;;24.70;1.00;;;;;;2613180;54;20410;-82
2024/04/15 09:02:45;;;;;;;68.00;65.10;;;24.70;1.00;;;;;;2613288;54;20437;-83
2024/04/15 09:05:12;;;;;;;67.27;64.47;;;24.70;1.00;;;;;;2615277;54;20515;-82
2024/04/15 09:07:38;;;;;;;66.90;64.10;;;24.70;1.00;;;;;;2614936;54;20400;-83
2024/04/15 09:10:04;;;;;;;66.70;63.90;;;24.70;1.00;;;;;;2614735;54;20396;-82
2024/04/15 09:12:38;;;;;;;66.17;63.37;;;24.80;1.00;;;;;;2614910;47;20423;-82
2024/04/15 09:15:04;;;;;;;66.70;63.90;;;24.90;1.00;;;;;;2614779;47;20431;-83
2024/04/15 09:17:31;;;;;;;67.23;64.43;;;24.80;1.00;;;;;;2614443;54;20408;-82
2024/04/15 09:19:57;;;;;;;67.30;64.50;;;24.70;1.00;;;;;;2614306;47;20447;-82
2024/04/15 09:22:29;;;;;;;67.00;64.20;;;24.70;1.00;;;;;;2614576;54;20458;-82
2024/04/15 09:24:57;;;;;;;67.80;64.90;;;24.70;1.00;;;;;;2614773;54;20415;-83
2024/04/15 09:27:25;;;;;;;67.57;64.77;;;24.70;1.00;;;;;;2613198;54;20416;-70
2024/04/15 09:29:51;;;;;;;68.00;65.10;;;24.70;1.00;;;;;;2613460;54;21054;-69
2024/04/15 09:32:18;;;;;;;67.50;64.60;;;24.70;1.00;;;;;;2614189;47;20464;-70
2024/04/15 09:34:51;;;;;;;67.83;65.00;;;24.60;1.00;;;;;;2613648;54;20475;-70
2024/04/15 09:37:17;;;;;;;68.70;65.70;;;24.60;1.00;;;;;;2614049;54;20523;-75
2024/04/15 09:39:43;;;;;;;68.17;65.27;;;24.60;1.00;;;;;;2614274;39;20818;-75
2024/04/15 09:42:13;;;;;;;68.60;65.70;;;24.60;1.00;;;;;;2614263;39;20757;-75
2024/04/15 09:44:40;;;;;;;69.10;66.10;;;24.50;1.00;;;;;;2614992;31;20873;-75
2024/04/15 09:47:06;;;;;;;69.00;66.00;;;24.60;1.00;;;;;;2614202;54;20957;-81
2024/04/15 09:49:33;;;;;;;68.20;65.30;;;24.60;1.00;;;;;;2614515;54;20507;-83
2024/04/15 09:52:06;;;;;;;68.57;65.57;;;24.70;1.00;;;;;;2614627;39;20596;-81
2024/04/15 09:54:35;;;;;;;69.60;66.60;;;24.80;1.00;;;;;;2614153;54;20443;-83
2024/04/15 09:57:10;;;;;;;68.00;65.10;;;24.80;1.00;;;;;;2614126;54;20426;-81
2024/04/15 09:59:39;;;;;;;69.33;66.33;;;24.90;1.00;;;;;;2613767;54;20502;-81
2024/04/15 10:02:21;;;;;;;68.00;65.10;;;24.90;1.00;;;;;;2614257;54;20407;-81
2024/04/15 10:04:49;;;;;;;68.93;65.93;;;24.80;1.00;;;;;;2614830;47;20522;-81
2024/04/15 10:07:16;;;;;;;67.77;64.87;;;24.80;1.00;;;;;;2613477;54;21124;-82
2024/04/15 10:09:42;;;;;;;68.90;66.00;;;24.80;1.00;;;;;;2614911;54;20403;-83
2024/04/15 10:12:08;;;;;;;69.50;66.50;;;24.70;1.00;;;;;;2614512;54;20412;-82
2024/04/15 10:14:34;;;;;;;68.50;65.60;;;24.70;1.00;;;;;;2614795;47;20842;-83
2024/04/15 10:16:59;;;;;;;68.40;65.50;;;24.60;1.00;;;;;;2614963;54;20423;-83
2024/04/15 10:19:30;;;;;;;69.33;66.33;;;24.60;1.00;;;;;;2613775;39;20746;-82
2024/04/15 10:21:56;;;;;;;67.07;64.27;;;24.70;1.00;;;;;;2614152;46;20218;-82
2024/04/15 10:24:22;;;;;;;68.67;65.77;;;24.70;1.00;;;;;;2614322;47;20508;-82
2024/04/15 10:26:48;;;;;;;66.60;63.80;;;24.60;1.00;;;;;;2614345;54;20162;-82
2024/04/15 10:29:19;;;;;;;67.23;64.43;;;24.70;1.00;;;;;;2614776;51;20391;-83
2024/04/15 10:31:52;;;;;;;67.53;64.73;;;24.70;1.00;;;;;;2614751;54;20471;-83
2024/04/15 10:34:20;;;;;;;69.50;66.50;;;24.60;1.00;;;;;;2614370;54;20412;-83
2024/04/15 10:36:50;;;;;;;66.03;63.33;;;24.60;1.00;;;;;;2614383;39;20807;-68
2024/04/15 10:39:17;;;;;;;67.37;64.57;;;24.50;1.00;;;;;;2613718;54;20597;-67
2024/04/15 10:41:45;;;;;;;65.00;62.30;;;24.50;1.00;;;;;;2613422;47;20414;-68
2024/04/15 10:44:10;;;;;;;64.60;61.90;;;24.50;1.00;;;;;;2613960;54;20495;-68
2024/04/15 10:46:40;;;;;;;65.40;62.60;;;24.60;1.00;;;;;;2614700;39;20851;-84
2024/04/15 10:49:10;;;;;;;65.57;62.77;;;24.60;1.00;;;;;;2614644;54;20149;-83
2024/04/15 10:51:37;;;;;;;65.50;62.70;;;24.60;1.00;;;;;;2614527;54;20965;-85
2024/04/15 10:54:04;;;;;;;64.97;62.17;;;24.60;1.00;;;;;;2614537;54;20479;-85
2024/04/15 10:56:30;;;;;;;65.50;62.70;;;24.60;1.00;;;;;;2614557;48;20430;-72
2024/04/15 10:58:55;;;;;;;64.10;61.40;;;24.60;1.00;;;;;;2613557;54;20380;-72
2024/04/15 11:01:21;;;;;;;66.03;63.23;;;24.60;1.00;;;;;;2613497;39;20536;-72
2024/04/15 11:03:47;;;;;;;65.60;62.80;;;24.60;1.00;;;;;;2613559;54;20159;-72
2024/04/15 11:06:17;;;;;;;64.60;61.90;;;24.50;1.00;;;;;;2613582;54;20142;-72
2024/04/15 11:08:43;;;;;;;64.63;61.93;;;24.60;1.00;;;;;;2613854;47;20431;-71
2024/04/15 11:11:10;;;;;;;66.47;63.67;;;24.60;1.00;;;;;;2613860;47;20443;-72
2024/04/15 11:13:38;;;;;;;66.47;63.67;;;24.70;1.00;;;;;;2613999;54;21167;-71
2024/04/15 11:16:05;;;;;;;66.57;63.77;;;24.70;1.00;;;;;;2613653;54;20435;-72
2024/04/15 11:18:30;;;;;;;67.17;64.27;;;24.70;1.00;;;;;;2614326;54;20426;-71
2024/04/15 11:21:02;;;;;;;67.27;64.47;;;24.70;1.00;;;;;;2614329;54;20403;-71
2024/04/15 11:23:28;;;;;;;66.90;64.10;;;24.70;1.00;;;;;;2613888;39;20585;-71
2024/04/15 11:25:57;;;;;;;68.07;65.17;;;24.70;1.00;;;;;;2614348;54;20391;-71
2024/04/15 11:28:23;;;;;;;66.33;63.53;;;24.60;1.00;;;;;;2614099;54;20415;-71
2024/04/15 11:30:50;;;;;;;67.70;64.80;;;24.70;1.00;;;;;;2614135;54;20431;-71
2024/04/15 11:33:17;;;;;;;66.30;63.50;;;24.70;1.00;;;;;;2614781;39;20494;-71
2024/04/15 11:35:50;;;;;;;67.00;64.20;;;24.70;1.00;;;;;;2614893;54;20471;-71
2024/04/15 11:38:16;;;;;;;66.63;63.83;;;24.70;1.00;;;;;;2614565;54;20411;-71
2024/04/15 11:40:43;;;;;;;66.93;64.13;;;24.70;1.00;;;;;;2613026;54;20427;-72
2024/04/15 11:43:09;;;;;;;67.00;64.20;;;24.70;1.00;;;;;;2613090;54;21021;-71
2024/04/15 11:45:35;;;;;;;66.87;64.07;;;24.70;1.00;;;;;;2614410;54;20399;-71
2024/04/15 11:48:00;;;;;;;67.50;64.70;;;24.80;1.00;;;;;;2613966;54;20139;-73
2024/04/15 11:50:26;;;;;;;66.30;63.50;;;24.90;1.00;;;;;;2614583;47;20163;-74
2024/04/15 11:52:57;;;;;;;67.50;64.70;;;24.90;1.00;;;;;;2613829;54;20817;-73
2024/04/15 11:55:23;;;;;;;68.00;65.10;;;24.80;1.00;;;;;;2614230;54;20158;-73
2024/04/15 11:57:49;;;;;;;66.63;63.83;;;24.90;1.00;;;;;;2613829;47;20455;-72
2024/04/15 12:00:16;;;;;;;67.03;64.23;;;24.80;1.00;;;;;;2613685;47;20428;-72
2024/04/15 12:02:42;;;;;;;66.97;64.17;;;24.80;1.00;;;;;;2613170;54;21042;-72
2024/04/15 12:05:09;;;;;;;67.10;64.30;;;24.80;1.00;;;;;;2614104;54;20399;-72
2024/04/15 12:07:35;;;;;;;66.90;64.10;;;24.80;1.00;;;;;;2614252;54;20387;-71
2024/04/15 12:10:03;;;;;;;67.77;64.97;;;24.80;1.00;;;;;;2613920;54;20926;-71
2024/04/15 12:12:28;;;;;;;67.07;64.27;;;24.80;1.00;;;;;;2613804;54;20174;-71
2024/04/15 12:14:54;;;;;;;67.37;64.57;;;24.80;1.00;;;;;;2613856;54;20945;-72
2024/04/15 12:17:20;;;;;;;66.70;63.90;;;24.80;1.00;;;;;;2614211;54;20139;-71
2024/04/15 12:19:45;;;;;;;66.20;63.50;;;24.80;1.00;;;;;;2614201;54;20159;-71
2024/04/15 12:22:11;;;;;;;67.30;64.50;;;24.80;1.00;;;;;;2613473;54;20135;-71
2024/04/15 12:24:37;;;;;;;66.47;63.67;;;24.90;1.00;;;;;;2614319;39;20681;-71
2024/04/15 12:27:03;;;;;;;66.20;63.40;;;24.90;1.00;;;;;;2613295;54;20214;-71
2024/04/15 12:29:28;;;;;;;67.17;64.37;;;24.80;1.00;;;;;;2614568;54;20163;-71
2024/04/15 12:31:54;;;;;;;66.77;63.97;;;24.70;1.00;;;;;;2612483;54;20583;-71